Arca — PDHT — position and weather

sailwx.info

Track history (hours):
 
Tides and Currents Weather Stations Pressure Air Temp Water Temp Dewpoint Dewpoint Depression Visibility Wind Speed Wind Dir Waves Ship Positions

Oceanographic research ship Arca (Netherlands)

Detailed information on ship capabilities available from University of Delaware's Ocean Information Center.

Last reported at 2015-Jul-04 14:34 UTC. Time now 2015-Jul-07 06:52 UTC.
Position N 54°16' E 003°15'.

Length 83 m; draft 4.9 m.

Type: Law enforcement. MMSI: 244454000.

Date/timePositionNaut miles runAvg speedWind from/ knotsBaromVisibWave heightAir tempDewpointWater temp
2015-Jul-04 14:34N 54°16' E 003°15'12 0.3
2015-Jul-02 16:25N 54°05' E 003°10'4 1.1
2015-Jul-02 13:09N 54°06' E 003°15'2 2.7
2015-Jul-02 12:16N 54°07' E 003°11'3 4.1
2015-Jul-02 11:33N 54°06' E 003°06'11 0.5
2015-Jul-01 15:13N 53°56' E 002°57'5 7.7
2015-Jul-01 14:31N 53°59' E 003°05'0 0.2
2015-Jul-01 13:23N 53°59' E 003°05'0 0.3
2015-Jul-01 12:33N 53°59' E 003°05'1 1.1
2015-Jul-01 11:33N 53°60' E 003°06'0 0.1
2015-Jul-01 10:31N 53°60' E 003°06'0 0.3
2015-Jul-01 09:33N 53°60' E 003°06'1 1.1
2015-Jul-01 08:30N 54°01' E 003°07'0 0.1
2015-Jul-01 05:27N 54°01' E 003°07'1 0.5
2015-Jul-01 03:20N 54°02' E 003°08'2 0.1
2015-Jun-30 15:32N 54°03' E 003°09'64 3.7
2015-Jun-29 22:07N 53°03' E 003°42'711.9
2015-Jun-29 21:32N 52°56' E 003°45'1111.1
2015-Jun-29 20:33N 52°46' E 003°51'1111.0
2015-Jun-29 19:33N 52°35' E 003°48'7 7.3
2015-Jun-29 18:34N 52°28' E 003°49'2 1.6
2015-Jun-29 17:33N 52°28' E 003°52'1111.3
2015-Jun-29 16:33N 52°19' E 004°02'1211.9
2015-Jun-29 15:33N 52°09' E 004°13'3 3.3
2015-Jun-29 14:33N 52°06' E 004°16'0 0.0
2015-Jun-29 13:30N 52°06' E 004°16'0 0.0
2015-Jun-29 12:27N 52°06' E 004°16'0 0.0
2015-Jun-29 11:24N 52°06' E 004°16'0 0.0
2015-Jun-29 10:33N 52°06' E 004°16'0 0.0
2015-Jun-29 09:33N 52°06' E 004°16'0 0.0
2015-Jun-29 08:33N 52°06' E 004°16'0 0.0
2015-Jun-29 07:29N 52°06' E 004°16'0 0.0
2015-Jun-29 06:20N 52°06' E 004°16'0 0.0
2015-Jun-29 05:32N 52°06' E 004°16'0 0.0
2015-Jun-29 04:32N 52°06' E 004°16'0 0.0
2015-Jun-29 03:26N 52°06' E 004°16'0 0.0
2015-Jun-29 02:29N 52°06' E 004°16'0 0.0
2015-Jun-29 01:29N 52°06' E 004°16'0 0.0
2015-Jun-29 00:32N 52°06' E 004°16'0 0.0
2015-Jun-28 23:32N 52°06' E 004°16'0 0.0
2015-Jun-28 22:20N 52°06' E 004°16'0 0.0
2015-Jun-28 21:32N 52°06' E 004°16'0 0.0
2015-Jun-28 20:26N 52°06' E 004°16'0 0.0
2015-Jun-28 19:32N 52°06' E 004°16'0 0.0
2015-Jun-28 18:32N 52°06' E 004°16'0 0.0
2015-Jun-28 17:29N 52°06' E 004°16'0 0.0
2015-Jun-28 16:32N 52°06' E 004°16'0 0.0
2015-Jun-28 15:32N 52°06' E 004°16'0 0.0
2015-Jun-28 14:26N 52°06' E 004°16'0 0.0
2015-Jun-28 13:23N 52°06' E 004°16'0 0.0
2015-Jun-28 12:32N 52°06' E 004°16'0 0.0
2015-Jun-28 11:32N 52°06' E 004°16'0 0.0
2015-Jun-28 10:32N 52°06' E 004°16'0 0.0
2015-Jun-28 09:32N 52°06' E 004°16'0 0.0
2015-Jun-28 08:32N 52°06' E 004°16'0 0.0
2015-Jun-28 07:32N 52°06' E 004°16'0 0.0
2015-Jun-28 06:32N 52°06' E 004°16'0 0.0
2015-Jun-28 05:32N 52°06' E 004°16'0 0.0
2015-Jun-28 04:26N 52°06' E 004°16'0 0.0
2015-Jun-28 03:26N 52°06' E 004°16'0 0.0
2015-Jun-28 02:26N 52°06' E 004°16'0 0.0
2015-Jun-28 01:29N 52°06' E 004°16'0 0.0
2015-Jun-28 00:26N 52°06' E 004°16'0 0.0
2015-Jun-27 23:32N 52°06' E 004°16'0 0.0
2015-Jun-27 22:29N 52°06' E 004°16'0 0.0
2015-Jun-27 21:32N 52°06' E 004°16'0 0.0
2015-Jun-27 20:32N 52°06' E 004°16'0 0.0
2015-Jun-27 19:29N 52°06' E 004°16'0 0.0
2015-Jun-27 18:26N 52°06' E 004°16'0 0.0
2015-Jun-27 17:32N 52°06' E 004°16'0 0.0
2015-Jun-27 16:29N 52°06' E 004°16'0 0.0
2015-Jun-27 15:32N 52°06' E 004°16'0 0.0
2015-Jun-27 14:26N 52°06' E 004°16'0 0.0
2015-Jun-27 13:32N 52°06' E 004°16'0 0.0
2015-Jun-27 12:32N 52°06' E 004°16'0 0.0
2015-Jun-27 11:32N 52°06' E 004°16'0 0.0
2015-Jun-27 10:29N 52°06' E 004°16'0 0.0
2015-Jun-27 09:32N 52°06' E 004°16'0 0.0
2015-Jun-27 08:32N 52°06' E 004°16'0 0.0
2015-Jun-27 07:32N 52°06' E 004°16'0 0.0
2015-Jun-27 06:32N 52°06' E 004°16'0 0.0
2015-Jun-27 05:32N 52°06' E 004°16'0 0.0
2015-Jun-27 04:32N 52°06' E 004°16'0 0.0
2015-Jun-27 03:29N 52°06' E 004°16'0 0.0
2015-Jun-27 02:32N 52°06' E 004°16'0 0.0
2015-Jun-27 01:32N 52°06' E 004°16'0 0.0
2015-Jun-27 00:29N 52°06' E 004°16'0 0.0
2015-Jun-26 23:32N 52°06' E 004°16'0 0.0
2015-Jun-26 22:32N 52°06' E 004°16'0 0.0
2015-Jun-26 21:26N 52°06' E 004°16'0 0.0
2015-Jun-26 20:32N 52°06' E 004°16'0 0.0
2015-Jun-26 19:32N 52°06' E 004°16'0 0.0
2015-Jun-26 18:32N 52°06' E 004°16'0 0.0
2015-Jun-26 17:26N 52°06' E 004°16'0 0.0
2015-Jun-26 16:32N 52°06' E 004°16'0 0.0
2015-Jun-26 15:32N 52°06' E 004°16'0 0.0
2015-Jun-26 14:32N 52°06' E 004°16'0 0.0
2015-Jun-26 13:32N 52°06' E 004°16'0 0.0
2015-Jun-26 12:32N 52°06' E 004°16'0 0.0
2015-Jun-26 11:32N 52°06' E 004°16'0 0.0
2015-Jun-26 10:32N 52°06' E 004°16'0 0.0
2015-Jun-26 09:26N 52°06' E 004°16'0 0.0
2015-Jun-26 08:29N 52°06' E 004°16'0 0.0
2015-Jun-26 07:14N 52°06' E 004°16'0 0.0
2015-Jun-26 06:32N 52°06' E 004°16'0 0.0
2015-Jun-26 05:32N 52°06' E 004°16'0 0.0
2015-Jun-26 04:26N 52°06' E 004°16'0 0.0
2015-Jun-26 03:32N 52°06' E 004°16'0 0.0
2015-Jun-26 02:26N 52°06' E 004°16'0 0.0
2015-Jun-26 01:29N 52°06' E 004°16'0 0.0
2015-Jun-26 00:29N 52°06' E 004°16'0 0.0
2015-Jun-25 23:32N 52°06' E 004°16'0 0.0
2015-Jun-25 22:32N 52°06' E 004°16'0 0.0
2015-Jun-25 21:20N 52°06' E 004°16'0 0.0
2015-Jun-25 20:32N 52°06' E 004°16'0 0.0
2015-Jun-25 19:32N 52°06' E 004°16'0 0.0
2015-Jun-25 18:32N 52°06' E 004°16'0 0.0
2015-Jun-25 17:20N 52°06' E 004°16'0 0.0
2015-Jun-25 16:32N 52°06' E 004°16'0 0.0
2015-Jun-25 15:33N 52°06' E 004°16'3 2.8
2015-Jun-25 14:33N 52°07' E 004°11'5 5.5
2015-Jun-25 13:34N 52°08' E 004°03'3 3.2
2015-Jun-25 12:33N 52°09' E 004°08'6 5.8
2015-Jun-25 11:33N 52°06' E 004°16'0 0.0
2015-Jun-25 10:33N 52°06' E 004°16'0 0.0
2015-Jun-25 09:32N 52°06' E 004°16'0 0.0
2015-Jun-25 08:32N 52°06' E 004°16'0 0.0
2015-Jun-25 07:32N 52°06' E 004°16'0 0.0
2015-Jun-25 06:33N 52°06' E 004°16'0 0.0
2015-Jun-25 05:33N 52°06' E 004°16'0 0.0
2015-Jun-25 04:32N 52°06' E 004°16'0 0.0
2015-Jun-25 03:32N 52°06' E 004°16'0 0.0
2015-Jun-25 02:33N 52°06' E 004°16'0 0.0
2015-Jun-25 01:32N 52°06' E 004°16'0 0.0
2015-Jun-25 00:33N 52°06' E 004°16'0 0.0
2015-Jun-24 23:33N 52°06' E 004°16'0 0.0
2015-Jun-24 22:32N 52°06' E 004°16'0 0.0
2015-Jun-24 21:32N 52°06' E 004°16'0 0.0
2015-Jun-24 20:32N 52°06' E 004°16'0 0.0
2015-Jun-24 19:33N 52°06' E 004°16'0 0.0
2015-Jun-24 18:33N 52°06' E 004°16'0 0.0
2015-Jun-24 17:32N 52°06' E 004°16'0 0.0
2015-Jun-24 16:33N 52°06' E 004°16'0 0.0
2015-Jun-24 15:32N 52°06' E 004°16'  
Track history (hours):
 
Tides and Currents Weather Stations Pressure Air Temp Water Temp Dewpoint Dewpoint Depression Visibility Wind Speed Wind Dir Waves Ship Positions

Oceanographic research ship Arca (Netherlands)

Detailed information on ship capabilities available from University of Delaware's Ocean Information Center.

Last reported at 2015-Jul-04 14:34 UTC. Time now 2015-Jul-07 06:52 UTC.
Position N 54°16' E 003°15'.

Length 83 m; draft 4.9 m.

Type: Law enforcement. MMSI: 244454000.

Date/timePositionNaut miles runAvg speedWind from/ knotsBaromVisibWave heightAir tempDewpointWater temp
2015-Jul-04 14:34N 54°16' E 003°15'12 0.3
2015-Jul-02 16:25N 54°05' E 003°10'4 1.1
2015-Jul-02 13:09N 54°06' E 003°15'2 2.7
2015-Jul-02 12:16N 54°07' E 003°11'3 4.1
2015-Jul-02 11:33N 54°06' E 003°06'11 0.5
2015-Jul-01 15:13N 53°56' E 002°57'5 7.7
2015-Jul-01 14:31N 53°59' E 003°05'0 0.2
2015-Jul-01 13:23N 53°59' E 003°05'0 0.3
2015-Jul-01 12:33N 53°59' E 003°05'1 1.1
2015-Jul-01 11:33N 53°60' E 003°06'0 0.1
2015-Jul-01 10:31N 53°60' E 003°06'0 0.3
2015-Jul-01 09:33N 53°60' E 003°06'1 1.1
2015-Jul-01 08:30N 54°01' E 003°07'0 0.1
2015-Jul-01 05:27N 54°01' E 003°07'1 0.5
2015-Jul-01 03:20N 54°02' E 003°08'2 0.1
2015-Jun-30 15:32N 54°03' E 003°09'64 3.7
2015-Jun-29 22:07N 53°03' E 003°42'711.9
2015-Jun-29 21:32N 52°56' E 003°45'1111.1
2015-Jun-29 20:33N 52°46' E 003°51'1111.0
2015-Jun-29 19:33N 52°35' E 003°48'7 7.3
2015-Jun-29 18:34N 52°28' E 003°49'2 1.6
2015-Jun-29 17:33N 52°28' E 003°52'1111.3
2015-Jun-29 16:33N 52°19' E 004°02'1211.9
2015-Jun-29 15:33N 52°09' E 004°13'3 3.3
2015-Jun-29 14:33N 52°06' E 004°16'0 0.0
2015-Jun-29 13:30N 52°06' E 004°16'0 0.0
2015-Jun-29 12:27N 52°06' E 004°16'0 0.0
2015-Jun-29 11:24N 52°06' E 004°16'0 0.0
2015-Jun-29 10:33N 52°06' E 004°16'0 0.0
2015-Jun-29 09:33N 52°06' E 004°16'0 0.0
2015-Jun-29 08:33N 52°06' E 004°16'0 0.0
2015-Jun-29 07:29N 52°06' E 004°16'0 0.0
2015-Jun-29 06:20N 52°06' E 004°16'0 0.0
2015-Jun-29 05:32N 52°06' E 004°16'0 0.0
2015-Jun-29 04:32N 52°06' E 004°16'0 0.0
2015-Jun-29 03:26N 52°06' E 004°16'0 0.0
2015-Jun-29 02:29N 52°06' E 004°16'0 0.0
2015-Jun-29 01:29N 52°06' E 004°16'0 0.0
2015-Jun-29 00:32N 52°06' E 004°16'0 0.0
2015-Jun-28 23:32N 52°06' E 004°16'0 0.0
2015-Jun-28 22:20N 52°06' E 004°16'0 0.0
2015-Jun-28 21:32N 52°06' E 004°16'0 0.0
2015-Jun-28 20:26N 52°06' E 004°16'0 0.0
2015-Jun-28 19:32N 52°06' E 004°16'0 0.0
2015-Jun-28 18:32N 52°06' E 004°16'0 0.0
2015-Jun-28 17:29N 52°06' E 004°16'0 0.0
2015-Jun-28 16:32N 52°06' E 004°16'0 0.0
2015-Jun-28 15:32N 52°06' E 004°16'0 0.0
2015-Jun-28 14:26N 52°06' E 004°16'0 0.0
2015-Jun-28 13:23N 52°06' E 004°16'0 0.0
2015-Jun-28 12:32N 52°06' E 004°16'0 0.0
2015-Jun-28 11:32N 52°06' E 004°16'0 0.0
2015-Jun-28 10:32N 52°06' E 004°16'0 0.0
2015-Jun-28 09:32N 52°06' E 004°16'0 0.0
2015-Jun-28 08:32N 52°06' E 004°16'0 0.0
2015-Jun-28 07:32N 52°06' E 004°16'0 0.0
2015-Jun-28 06:32N 52°06' E 004°16'0 0.0
2015-Jun-28 05:32N 52°06' E 004°16'0 0.0
2015-Jun-28 04:26N 52°06' E 004°16'0 0.0
2015-Jun-28 03:26N 52°06' E 004°16'0 0.0
2015-Jun-28 02:26N 52°06' E 004°16'0 0.0
2015-Jun-28 01:29N 52°06' E 004°16'0 0.0
2015-Jun-28 00:26N 52°06' E 004°16'0 0.0
2015-Jun-27 23:32N 52°06' E 004°16'0 0.0
2015-Jun-27 22:29N 52°06' E 004°16'0 0.0
2015-Jun-27 21:32N 52°06' E 004°16'0 0.0
2015-Jun-27 20:32N 52°06' E 004°16'0 0.0
2015-Jun-27 19:29N 52°06' E 004°16'0 0.0
2015-Jun-27 18:26N 52°06' E 004°16'0 0.0
2015-Jun-27 17:32N 52°06' E 004°16'0 0.0
2015-Jun-27 16:29N 52°06' E 004°16'0 0.0
2015-Jun-27 15:32N 52°06' E 004°16'0 0.0
2015-Jun-27 14:26N 52°06' E 004°16'0 0.0
2015-Jun-27 13:32N 52°06' E 004°16'0 0.0
2015-Jun-27 12:32N 52°06' E 004°16'0 0.0
2015-Jun-27 11:32N 52°06' E 004°16'0 0.0
2015-Jun-27 10:29N 52°06' E 004°16'0 0.0
2015-Jun-27 09:32N 52°06' E 004°16'0 0.0
2015-Jun-27 08:32N 52°06' E 004°16'0 0.0
2015-Jun-27 07:32N 52°06' E 004°16'0 0.0
2015-Jun-27 06:32N 52°06' E 004°16'0 0.0
2015-Jun-27 05:32N 52°06' E 004°16'0 0.0
2015-Jun-27 04:32N 52°06' E 004°16'0 0.0
2015-Jun-27 03:29N 52°06' E 004°16'0 0.0
2015-Jun-27 02:32N 52°06' E 004°16'0 0.0
2015-Jun-27 01:32N 52°06' E 004°16'0 0.0
2015-Jun-27 00:29N 52°06' E 004°16'0 0.0
2015-Jun-26 23:32N 52°06' E 004°16'0 0.0
2015-Jun-26 22:32N 52°06' E 004°16'0 0.0
2015-Jun-26 21:26N 52°06' E 004°16'0 0.0
2015-Jun-26 20:32N 52°06' E 004°16'0 0.0
2015-Jun-26 19:32N 52°06' E 004°16'0 0.0
2015-Jun-26 18:32N 52°06' E 004°16'0 0.0
2015-Jun-26 17:26N 52°06' E 004°16'0 0.0
2015-Jun-26 16:32N 52°06' E 004°16'0 0.0
2015-Jun-26 15:32N 52°06' E 004°16'0 0.0
2015-Jun-26 14:32N 52°06' E 004°16'0 0.0
2015-Jun-26 13:32N 52°06' E 004°16'0 0.0
2015-Jun-26 12:32N 52°06' E 004°16'0 0.0
2015-Jun-26 11:32N 52°06' E 004°16'0 0.0
2015-Jun-26 10:32N 52°06' E 004°16'0 0.0
2015-Jun-26 09:26N 52°06' E 004°16'0 0.0
2015-Jun-26 08:29N 52°06' E 004°16'0 0.0
2015-Jun-26 07:14N 52°06' E 004°16'0 0.0
2015-Jun-26 06:32N 52°06' E 004°16'0 0.0
2015-Jun-26 05:32N 52°06' E 004°16'0 0.0
2015-Jun-26 04:26N 52°06' E 004°16'0 0.0
2015-Jun-26 03:32N 52°06' E 004°16'0 0.0
2015-Jun-26 02:26N 52°06' E 004°16'0 0.0
2015-Jun-26 01:29N 52°06' E 004°16'0 0.0
2015-Jun-26 00:29N 52°06' E 004°16'0 0.0
2015-Jun-25 23:32N 52°06' E 004°16'0 0.0
2015-Jun-25 22:32N 52°06' E 004°16'0 0.0
2015-Jun-25 21:20N 52°06' E 004°16'0 0.0
2015-Jun-25 20:32N 52°06' E 004°16'0 0.0
2015-Jun-25 19:32N 52°06' E 004°16'0 0.0
2015-Jun-25 18:32N 52°06' E 004°16'0 0.0
2015-Jun-25 17:20N 52°06' E 004°16'0 0.0
2015-Jun-25 16:32N 52°06' E 004°16'0 0.0
2015-Jun-25 15:33N 52°06' E 004°16'3 2.8
2015-Jun-25 14:33N 52°07' E 004°11'5 5.5
2015-Jun-25 13:34N 52°08' E 004°03'3 3.2
2015-Jun-25 12:33N 52°09' E 004°08'6 5.8
2015-Jun-25 11:33N 52°06' E 004°16'0 0.0
2015-Jun-25 10:33N 52°06' E 004°16'0 0.0
2015-Jun-25 09:32N 52°06' E 004°16'0 0.0
2015-Jun-25 08:32N 52°06' E 004°16'0 0.0
2015-Jun-25 07:32N 52°06' E 004°16'0 0.0
2015-Jun-25 06:33N 52°06' E 004°16'0 0.0
2015-Jun-25 05:33N 52°06' E 004°16'0 0.0
2015-Jun-25 04:32N 52°06' E 004°16'0 0.0
2015-Jun-25 03:32N 52°06' E 004°16'0 0.0
2015-Jun-25 02:33N 52°06' E 004°16'0 0.0
2015-Jun-25 01:32N 52°06' E 004°16'0 0.0
2015-Jun-25 00:33N 52°06' E 004°16'0 0.0
2015-Jun-24 23:33N 52°06' E 004°16'0 0.0
2015-Jun-24 22:32N 52°06' E 004°16'0 0.0
2015-Jun-24 21:32N 52°06' E 004°16'0 0.0
2015-Jun-24 20:32N 52°06' E 004°16'0 0.0
2015-Jun-24 19:33N 52°06' E 004°16'0 0.0
2015-Jun-24 18:33N 52°06' E 004°16'0 0.0
2015-Jun-24 17:32N 52°06' E 004°16'0 0.0
2015-Jun-24 16:33N 52°06' E 004°16'0 0.0
2015-Jun-24 15:32N 52°06' E 004°16'  

Dump ship's entire track history